sensor_id;sensor_type;location;lat;lon;timestamp;temperature;humidity
8820;DHT22;4446;50.876;4.736;2024-03-02T00:00:51;6.20;99.90
8820;DHT22;4446;50.876;4.736;2024-03-02T00:03:19;6.10;99.90
8820;DHT22;4446;50.876;4.736;2024-03-02T00:05:49;6.20;99.90
8820;DHT22;4446;50.876;4.736;2024-03-02T00:08:23;6.20;99.90
8820;DHT22;4446;50.876;4.736;2024-03-02T00:10:51;6.20;99.90
8820;DHT22;4446;50.876;4.736;2024-03-02T00:13:21;6.10;99.90
8820;DHT22;4446;50.876;4.736;2024-03-02T00:15:52;6.10;99.90
8820;DHT22;4446;50.876;4.736;2024-03-02T00:18:25;6.10;99.90
8820;DHT22;4446;50.876;4.736;2024-03-02T00:20:54;6.10;99.90
8820;DHT22;4446;50.876;4.736;2024-03-02T00:23:21;6.10;99.90
8820;DHT22;4446;50.876;4.736;2024-03-02T00:25:50;6.10;99.90
8820;DHT22;4446;50.876;4.736;2024-03-02T00:28:21;6.10;99.90
8820;DHT22;4446;50.876;4.736;2024-03-02T00:30:55;6.10;99.90
8820;DHT22;4446;50.876;4.736;2024-03-02T00:33:24;6.10;99.90
8820;DHT22;4446;50.876;4.736;2024-03-02T00:35:53;6.10;99.90
8820;DHT22;4446;50.876;4.736;2024-03-02T00:38:20;6.10;99.90
8820;DHT22;4446;50.876;4.736;2024-03-02T00:40:48;6.10;99.90
8820;DHT22;4446;50.876;4.736;2024-03-02T00:46:16;6.10;99.90
8820;DHT22;4446;50.876;4.736;2024-03-02T00:48:48;6.10;99.90
8820;DHT22;4446;50.876;4.736;2024-03-02T00:51:18;6.10;99.90
8820;DHT22;4446;50.876;4.736;2024-03-02T00:53:45;6.00;99.90
8820;DHT22;4446;50.876;4.736;2024-03-02T00:56:12;6.00;99.90
8820;DHT22;4446;50.876;4.736;2024-03-02T00:58:40;6.00;99.90
8820;DHT22;4446;50.876;4.736;2024-03-02T01:01:07;6.00;99.90
8820;DHT22;4446;50.876;4.736;2024-03-02T01:03:35;6.00;99.90
8820;DHT22;4446;50.876;4.736;2024-03-02T01:06:03;6.10;99.90
8820;DHT22;4446;50.876;4.736;2024-03-02T01:08:32;6.20;99.90
8820;DHT22;4446;50.876;4.736;2024-03-02T01:10:59;6.20;99.90
8820;DHT22;4446;50.876;4.736;2024-03-02T01:13:26;6.10;99.90
8820;DHT22;4446;50.876;4.736;2024-03-02T01:15:54;6.10;99.90
8820;DHT22;4446;50.876;4.736;2024-03-02T01:18:21;6.10;99.90
8820;DHT22;4446;50.876;4.736;2024-03-02T01:20:49;6.10;99.90
8820;DHT22;4446;50.876;4.736;2024-03-02T01:23:17;6.00;99.90
8820;DHT22;4446;50.876;4.736;2024-03-02T01:25:45;6.00;99.90
8820;DHT22;4446;50.876;4.736;2024-03-02T01:28:12;5.90;99.90
8820;DHT22;4446;50.876;4.736;2024-03-02T01:30:39;5.90;99.90
8820;DHT22;4446;50.876;4.736;2024-03-02T01:33:09;5.90;99.90
8820;DHT22;4446;50.876;4.736;2024-03-02T01:35:36;5.90;99.90
8820;DHT22;4446;50.876;4.736;2024-03-02T01:38:04;5.90;99.90
8820;DHT22;4446;50.876;4.736;2024-03-02T01:40:32;5.80;99.90
8820;DHT22;4446;50.876;4.736;2024-03-02T01:42:59;5.80;99.90
8820;DHT22;4446;50.876;4.736;2024-03-02T01:45:27;5.90;99.90
8820;DHT22;4446;50.876;4.736;2024-03-02T01:47:55;5.80;99.90
8820;DHT22;4446;50.876;4.736;2024-03-02T01:50:27;5.80;99.90
8820;DHT22;4446;50.876;4.736;2024-03-02T01:52:54;5.90;99.90
8820;DHT22;4446;50.876;4.736;2024-03-02T01:55:21;5.90;99.90
8820;DHT22;4446;50.876;4.736;2024-03-02T01:57:48;5.90;99.90
8820;DHT22;4446;50.876;4.736;2024-03-02T02:00:16;5.90;99.90
8820;DHT22;4446;50.876;4.736;2024-03-02T02:02:44;5.80;99.90
8820;DHT22;4446;50.876;4.736;2024-03-02T02:05:11;5.80;99.90
8820;DHT22;4446;50.876;4.736;2024-03-02T02:07:40;5.70;99.90
8820;DHT22;4446;50.876;4.736;2024-03-02T02:10:08;5.80;99.90
8820;DHT22;4446;50.876;4.736;2024-03-02T02:12:36;5.80;99.90
8820;DHT22;4446;50.876;4.736;2024-03-02T02:15:04;5.80;99.90
8820;DHT22;4446;50.876;4.736;2024-03-02T02:17:31;5.80;99.90
8820;DHT22;4446;50.876;4.736;2024-03-02T02:19:58;5.80;99.90
8820;DHT22;4446;50.876;4.736;2024-03-02T02:22:26;5.80;99.90
8820;DHT22;4446;50.876;4.736;2024-03-02T02:24:53;5.80;99.90
8820;DHT22;4446;50.876;4.736;2024-03-02T02:27:20;5.80;99.90
8820;DHT22;4446;50.876;4.736;2024-03-02T02:29:47;5.90;99.90
8820;DHT22;4446;50.876;4.736;2024-03-02T02:32:14;6.00;99.90
8820;DHT22;4446;50.876;4.736;2024-03-02T02:34:41;6.00;99.90
8820;DHT22;4446;50.876;4.736;2024-03-02T02:37:08;6.00;99.90
8820;DHT22;4446;50.876;4.736;2024-03-02T02:39:36;6.00;99.90
8820;DHT22;4446;50.876;4.736;2024-03-02T02:42:03;5.90;99.90
8820;DHT22;4446;50.876;4.736;2024-03-02T02:44:30;5.80;99.90
8820;DHT22;4446;50.876;4.736;2024-03-02T02:46:57;5.70;99.90
8820;DHT22;4446;50.876;4.736;2024-03-02T02:49:24;5.60;99.90
8820;DHT22;4446;50.876;4.736;2024-03-02T02:51:51;5.60;99.90
8820;DHT22;4446;50.876;4.736;2024-03-02T02:54:18;5.40;99.90
8820;DHT22;4446;50.876;4.736;2024-03-02T02:56:46;5.60;99.90
8820;DHT22;4446;50.876;4.736;2024-03-02T02:59:13;5.50;99.90
8820;DHT22;4446;50.876;4.736;2024-03-02T03:01:40;5.50;99.90
8820;DHT22;4446;50.876;4.736;2024-03-02T03:04:07;5.40;99.90
8820;DHT22;4446;50.876;4.736;2024-03-02T03:06:34;5.20;99.90
8820;DHT22;4446;50.876;4.736;2024-03-02T03:09:01;5.20;99.90
8820;DHT22;4446;50.876;4.736;2024-03-02T03:11:28;5.00;99.90
8820;DHT22;4446;50.876;4.736;2024-03-02T03:13:56;5.10;99.90
8820;DHT22;4446;50.876;4.736;2024-03-02T03:16:25;5.00;99.90
8820;DHT22;4446;50.876;4.736;2024-03-02T03:18:52;5.00;99.90
8820;DHT22;4446;50.876;4.736;2024-03-02T03:21:19;5.00;99.90
8820;DHT22;4446;50.876;4.736;2024-03-02T03:23:46;5.00;99.90
8820;DHT22;4446;50.876;4.736;2024-03-02T03:26:13;4.90;99.90
8820;DHT22;4446;50.876;4.736;2024-03-02T03:28:41;4.70;99.90
8820;DHT22;4446;50.876;4.736;2024-03-02T03:31:09;4.70;99.90
8820;DHT22;4446;50.876;4.736;2024-03-02T03:33:36;4.70;99.90
8820;DHT22;4446;50.876;4.736;2024-03-02T03:36:03;4.50;99.90
8820;DHT22;4446;50.876;4.736;2024-03-02T03:38:30;4.50;99.90
8820;DHT22;4446;50.876;4.736;2024-03-02T03:40:57;4.50;99.90
8820;DHT22;4446;50.876;4.736;2024-03-02T03:43:24;4.50;99.90
8820;DHT22;4446;50.876;4.736;2024-03-02T03:45:51;4.60;99.90
8820;DHT22;4446;50.876;4.736;2024-03-02T03:48:20;4.60;99.90
8820;DHT22;4446;50.876;4.736;2024-03-02T03:50:47;4.60;99.90
8820;DHT22;4446;50.876;4.736;2024-03-02T03:53:14;4.70;99.90
8820;DHT22;4446;50.876;4.736;2024-03-02T03:55:41;4.50;99.90
8820;DHT22;4446;50.876;4.736;2024-03-02T03:58:08;4.50;99.90
8820;DHT22;4446;50.876;4.736;2024-03-02T04:00:35;4.50;99.90
8820;DHT22;4446;50.876;4.736;2024-03-02T04:03:02;4.40;99.90
8820;DHT22;4446;50.876;4.736;2024-03-02T04:05:30;4.40;99.90
8820;DHT22;4446;50.876;4.736;2024-03-02T04:07:57;4.50;99.90
8820;DHT22;4446;50.876;4.736;2024-03-02T04:10:24;4.50;99.90
8820;DHT22;4446;50.876;4.736;2024-03-02T04:12:51;4.50;99.90
8820;DHT22;4446;50.876;4.736;2024-03-02T04:15:18;4.60;99.90
8820;DHT22;4446;50.876;4.736;2024-03-02T04:17:45;4.60;99.90
8820;DHT22;4446;50.876;4.736;2024-03-02T04:20:12;4.50;99.90
8820;DHT22;4446;50.876;4.736;2024-03-02T04:22:40;4.50;99.90
8820;DHT22;4446;50.876;4.736;2024-03-02T04:25:08;4.50;99.90
8820;DHT22;4446;50.876;4.736;2024-03-02T04:27:35;4.40;99.90
8820;DHT22;4446;50.876;4.736;2024-03-02T04:30:03;4.40;99.90
8820;DHT22;4446;50.876;4.736;2024-03-02T04:32:31;4.30;99.90
8820;DHT22;4446;50.876;4.736;2024-03-02T04:34:58;4.40;99.90
8820;DHT22;4446;50.876;4.736;2024-03-02T04:37:25;4.30;99.90
8820;DHT22;4446;50.876;4.736;2024-03-02T04:39:53;4.40;99.90
8820;DHT22;4446;50.876;4.736;2024-03-02T04:42:20;4.30;99.90
8820;DHT22;4446;50.876;4.736;2024-03-02T04:44:48;4.20;99.90
8820;DHT22;4446;50.876;4.736;2024-03-02T04:47:15;4.30;99.90
8820;DHT22;4446;50.876;4.736;2024-03-02T04:49:42;4.20;99.90
8820;DHT22;4446;50.876;4.736;2024-03-02T04:52:09;4.20;99.90
8820;DHT22;4446;50.876;4.736;2024-03-02T04:54:36;4.10;99.90
8820;DHT22;4446;50.876;4.736;2024-03-02T04:57:24;4.00;99.90
8820;DHT22;4446;50.876;4.736;2024-03-02T04:59:51;4.10;99.90
8820;DHT22;4446;50.876;4.736;2024-03-02T05:02:18;4.10;99.90
8820;DHT22;4446;50.876;4.736;2024-03-02T05:04:45;4.20;99.90
8820;DHT22;4446;50.876;4.736;2024-03-02T05:07:13;4.20;99.90
8820;DHT22;4446;50.876;4.736;2024-03-02T05:09:40;4.10;99.90
8820;DHT22;4446;50.876;4.736;2024-03-02T05:12:08;4.10;99.90
8820;DHT22;4446;50.876;4.736;2024-03-02T05:14:50;4.00;99.90
8820;DHT22;4446;50.876;4.736;2024-03-02T05:17:17;4.20;99.90
8820;DHT22;4446;50.876;4.736;2024-03-02T05:19:44;4.40;99.90
8820;DHT22;4446;50.876;4.736;2024-03-02T05:22:11;4.30;99.90
8820;DHT22;4446;50.876;4.736;2024-03-02T05:24:38;4.20;99.90
8820;DHT22;4446;50.876;4.736;2024-03-02T05:27:04;4.00;99.90
8820;DHT22;4446;50.876;4.736;2024-03-02T05:29:33;4.00;99.90
8820;DHT22;4446;50.876;4.736;2024-03-02T05:32:01;3.90;99.90
8820;DHT22;4446;50.876;4.736;2024-03-02T05:34:28;3.90;99.90
8820;DHT22;4446;50.876;4.736;2024-03-02T05:36:56;4.00;99.90
8820;DHT22;4446;50.876;4.736;2024-03-02T05:39:24;3.90;99.90
8820;DHT22;4446;50.876;4.736;2024-03-02T05:41:51;3.90;99.90
8820;DHT22;4446;50.876;4.736;2024-03-02T05:44:18;3.90;99.90
8820;DHT22;4446;50.876;4.736;2024-03-02T05:46:45;4.00;99.90
8820;DHT22;4446;50.876;4.736;2024-03-02T05:49:13;4.00;99.90
8820;DHT22;4446;50.876;4.736;2024-03-02T05:51:40;4.00;99.90
8820;DHT22;4446;50.876;4.736;2024-03-02T05:54:07;4.10;99.90
8820;DHT22;4446;50.876;4.736;2024-03-02T05:56:35;4.00;99.90
8820;DHT22;4446;50.876;4.736;2024-03-02T05:59:01;4.00;99.90
8820;DHT22;4446;50.876;4.736;2024-03-02T06:01:38;4.00;99.90
8820;DHT22;4446;50.876;4.736;2024-03-02T06:04:05;4.10;99.90
8820;DHT22;4446;50.876;4.736;2024-03-02T06:06:33;4.00;99.90
8820;DHT22;4446;50.876;4.736;2024-03-02T06:09:00;3.90;99.90
8820;DHT22;4446;50.876;4.736;2024-03-02T06:11:28;3.90;99.90
8820;DHT22;4446;50.876;4.736;2024-03-02T06:13:55;3.90;99.90
8820;DHT22;4446;50.876;4.736;2024-03-02T06:16:22;3.90;99.90
8820;DHT22;4446;50.876;4.736;2024-03-02T06:18:49;3.80;99.90
8820;DHT22;4446;50.876;4.736;2024-03-02T06:21:17;3.80;99.90
8820;DHT22;4446;50.876;4.736;2024-03-02T06:23:45;3.70;99.90
8820;DHT22;4446;50.876;4.736;2024-03-02T06:26:13;3.80;99.90
8820;DHT22;4446;50.876;4.736;2024-03-02T06:28:40;3.90;99.90
8820;DHT22;4446;50.876;4.736;2024-03-02T06:31:06;3.90;99.90
8820;DHT22;4446;50.876;4.736;2024-03-02T06:33:33;4.10;99.90
8820;DHT22;4446;50.876;4.736;2024-03-02T06:36:00;4.00;99.90
8820;DHT22;4446;50.876;4.736;2024-03-02T06:38:27;4.00;99.90
8820;DHT22;4446;50.876;4.736;2024-03-02T06:40:56;4.10;99.90
8820;DHT22;4446;50.876;4.736;2024-03-02T06:43:23;4.00;99.90
8820;DHT22;4446;50.876;4.736;2024-03-02T06:45:50;4.00;99.90
8820;DHT22;4446;50.876;4.736;2024-03-02T06:48:17;4.00;99.90
8820;DHT22;4446;50.876;4.736;2024-03-02T06:50:45;4.00;99.90
8820;DHT22;4446;50.876;4.736;2024-03-02T06:53:13;4.10;99.90
8820;DHT22;4446;50.876;4.736;2024-03-02T06:55:43;4.00;99.90
8820;DHT22;4446;50.876;4.736;2024-03-02T06:58:12;4.00;99.90
8820;DHT22;4446;50.876;4.736;2024-03-02T07:00:40;4.20;99.90
8820;DHT22;4446;50.876;4.736;2024-03-02T07:03:07;4.10;99.90
8820;DHT22;4446;50.876;4.736;2024-03-02T07:05:34;4.10;99.90
8820;DHT22;4446;50.876;4.736;2024-03-02T07:08:01;4.10;99.90
8820;DHT22;4446;50.876;4.736;2024-03-02T07:10:30;4.20;99.90
8820;DHT22;4446;50.876;4.736;2024-03-02T07:12:57;4.20;99.90
8820;DHT22;4446;50.876;4.736;2024-03-02T07:15:25;4.20;99.90
8820;DHT22;4446;50.876;4.736;2024-03-02T07:18:20;4.20;99.90
8820;DHT22;4446;50.876;4.736;2024-03-02T07:20:47;4.30;99.90
8820;DHT22;4446;50.876;4.736;2024-03-02T07:23:15;4.20;99.90
8820;DHT22;4446;50.876;4.736;2024-03-02T07:25:42;4.20;99.90
8820;DHT22;4446;50.876;4.736;2024-03-02T07:28:09;4.20;99.90
8820;DHT22;4446;50.876;4.736;2024-03-02T07:30:37;4.20;99.90
8820;DHT22;4446;50.876;4.736;2024-03-02T07:33:04;4.20;99.90
8820;DHT22;4446;50.876;4.736;2024-03-02T07:35:31;4.20;99.90
8820;DHT22;4446;50.876;4.736;2024-03-02T07:37:59;4.20;99.90
8820;DHT22;4446;50.876;4.736;2024-03-02T07:40:26;4.20;99.90
8820;DHT22;4446;50.876;4.736;2024-03-02T07:42:53;4.30;99.90
8820;DHT22;4446;50.876;4.736;2024-03-02T07:45:20;4.40;99.90
8820;DHT22;4446;50.876;4.736;2024-03-02T07:47:48;4.40;99.90
8820;DHT22;4446;50.876;4.736;2024-03-02T07:50:16;4.50;99.90
8820;DHT22;4446;50.876;4.736;2024-03-02T07:52:43;4.60;99.90
8820;DHT22;4446;50.876;4.736;2024-03-02T07:55:10;4.60;99.90
8820;DHT22;4446;50.876;4.736;2024-03-02T07:57:37;4.70;99.90
8820;DHT22;4446;50.876;4.736;2024-03-02T08:00:05;4.70;99.90
8820;DHT22;4446;50.876;4.736;2024-03-02T08:02:32;4.70;99.90
8820;DHT22;4446;50.876;4.736;2024-03-02T08:05:01;4.80;99.90
8820;DHT22;4446;50.876;4.736;2024-03-02T08:07:28;4.90;99.90
8820;DHT22;4446;50.876;4.736;2024-03-02T08:09:55;5.00;99.90
8820;DHT22;4446;50.876;4.736;2024-03-02T08:12:22;5.20;99.90
8820;DHT22;4446;50.876;4.736;2024-03-02T08:14:49;5.30;99.90
8820;DHT22;4446;50.876;4.736;2024-03-02T08:17:16;5.40;99.90
8820;DHT22;4446;50.876;4.736;2024-03-02T08:19:43;5.50;99.90
8820;DHT22;4446;50.876;4.736;2024-03-02T08:22:12;5.50;99.90
8820;DHT22;4446;50.876;4.736;2024-03-02T08:24:39;5.60;99.90
8820;DHT22;4446;50.876;4.736;2024-03-02T08:27:06;5.70;99.90
8820;DHT22;4446;50.876;4.736;2024-03-02T08:29:33;5.80;99.90
8820;DHT22;4446;50.876;4.736;2024-03-02T08:32:00;5.80;99.90
8820;DHT22;4446;50.876;4.736;2024-03-02T08:34:27;6.00;99.90
8820;DHT22;4446;50.876;4.736;2024-03-02T08:36:53;6.00;99.90
8820;DHT22;4446;50.876;4.736;2024-03-02T08:39:22;6.20;99.90
8820;DHT22;4446;50.876;4.736;2024-03-02T08:41:49;6.40;99.90
8820;DHT22;4446;50.876;4.736;2024-03-02T08:44:16;6.40;99.90
8820;DHT22;4446;50.876;4.736;2024-03-02T08:46:44;6.50;99.90
8820;DHT22;4446;50.876;4.736;2024-03-02T08:49:11;6.60;99.90
8820;DHT22;4446;50.876;4.736;2024-03-02T08:51:38;6.80;99.90
8820;DHT22;4446;50.876;4.736;2024-03-02T08:54:05;7.00;99.90
8820;DHT22;4446;50.876;4.736;2024-03-02T08:56:33;7.10;99.90
8820;DHT22;4446;50.876;4.736;2024-03-02T08:59:01;7.20;99.90
8820;DHT22;4446;50.876;4.736;2024-03-02T09:01:28;7.20;99.90
8820;DHT22;4446;50.876;4.736;2024-03-02T09:03:54;7.30;99.90
8820;DHT22;4446;50.876;4.736;2024-03-02T09:06:21;7.40;99.90
8820;DHT22;4446;50.876;4.736;2024-03-02T09:08:48;7.50;99.90
8820;DHT22;4446;50.876;4.736;2024-03-02T09:11:17;7.60;99.90
8820;DHT22;4446;50.876;4.736;2024-03-02T09:13:45;7.70;99.90
8820;DHT22;4446;50.876;4.736;2024-03-02T09:16:12;7.80;99.90
8820;DHT22;4446;50.876;4.736;2024-03-02T09:18:39;7.80;99.90
8820;DHT22;4446;50.876;4.736;2024-03-02T09:21:06;7.90;99.90
8820;DHT22;4446;50.876;4.736;2024-03-02T09:23:33;7.90;99.90
8820;DHT22;4446;50.876;4.736;2024-03-02T09:26:00;8.00;99.90
8820;DHT22;4446;50.876;4.736;2024-03-02T09:28:28;8.10;99.90
8820;DHT22;4446;50.876;4.736;2024-03-02T09:30:56;8.10;99.90
8820;DHT22;4446;50.876;4.736;2024-03-02T09:33:23;8.10;99.90
8820;DHT22;4446;50.876;4.736;2024-03-02T09:35:49;8.20;99.90
8820;DHT22;4446;50.876;4.736;2024-03-02T09:38:16;8.10;99.90
8820;DHT22;4446;50.876;4.736;2024-03-02T09:40:44;8.00;99.90
8820;DHT22;4446;50.876;4.736;2024-03-02T09:43:11;7.90;99.90
8820;DHT22;4446;50.876;4.736;2024-03-02T09:45:39;7.80;99.90
8820;DHT22;4446;50.876;4.736;2024-03-02T09:48:07;7.80;99.90
8820;DHT22;4446;50.876;4.736;2024-03-02T09:50:34;7.80;99.90
8820;DHT22;4446;50.876;4.736;2024-03-02T09:53:01;7.80;99.90
8820;DHT22;4446;50.876;4.736;2024-03-02T09:55:28;8.00;99.90
8820;DHT22;4446;50.876;4.736;2024-03-02T09:57:55;8.20;99.90
8820;DHT22;4446;50.876;4.736;2024-03-02T10:00:22;8.20;99.90
8820;DHT22;4446;50.876;4.736;2024-03-02T10:02:50;8.20;99.90
8820;DHT22;4446;50.876;4.736;2024-03-02T10:05:27;8.20;99.90
8820;DHT22;4446;50.876;4.736;2024-03-02T10:08:01;8.20;99.90
8820;DHT22;4446;50.876;4.736;2024-03-02T10:10:36;8.40;99.90
8820;DHT22;4446;50.876;4.736;2024-03-02T10:13:06;8.60;99.90
8820;DHT22;4446;50.876;4.736;2024-03-02T10:15:36;8.80;99.90
8820;DHT22;4446;50.876;4.736;2024-03-02T10:18:04;8.90;99.90
8820;DHT22;4446;50.876;4.736;2024-03-02T10:20:32;8.90;99.90
8820;DHT22;4446;50.876;4.736;2024-03-02T10:23:10;9.10;99.90
8820;DHT22;4446;50.876;4.736;2024-03-02T10:25:38;9.20;99.90
8820;DHT22;4446;50.876;4.736;2024-03-02T10:28:05;9.20;99.90
8820;DHT22;4446;50.876;4.736;2024-03-02T10:30:33;9.30;99.90
8820;DHT22;4446;50.876;4.736;2024-03-02T10:33:00;9.50;99.90
8820;DHT22;4446;50.876;4.736;2024-03-02T10:35:28;9.60;99.90
8820;DHT22;4446;50.876;4.736;2024-03-02T10:37:58;9.70;99.90
8820;DHT22;4446;50.876;4.736;2024-03-02T10:40:26;9.70;99.90
8820;DHT22;4446;50.876;4.736;2024-03-02T10:42:53;9.80;99.90
8820;DHT22;4446;50.876;4.736;2024-03-02T10:45:21;9.80;99.90
8820;DHT22;4446;50.876;4.736;2024-03-02T10:47:49;9.90;99.90
8820;DHT22;4446;50.876;4.736;2024-03-02T10:50:17;10.00;99.90
8820;DHT22;4446;50.876;4.736;2024-03-02T10:52:44;10.00;99.90
8820;DHT22;4446;50.876;4.736;2024-03-02T10:55:13;10.00;99.90
8820;DHT22;4446;50.876;4.736;2024-03-02T10:57:50;10.10;99.90
8820;DHT22;4446;50.876;4.736;2024-03-02T11:00:19;10.10;99.90
8820;DHT22;4446;50.876;4.736;2024-03-02T11:02:51;10.20;99.90
8820;DHT22;4446;50.876;4.736;2024-03-02T11:05:26;10.20;99.90
8820;DHT22;4446;50.876;4.736;2024-03-02T11:07:57;10.10;99.90
8820;DHT22;4446;50.876;4.736;2024-03-02T11:10:34;10.10;99.90
8820;DHT22;4446;50.876;4.736;2024-03-02T11:13:04;10.20;99.90
8820;DHT22;4446;50.876;4.736;2024-03-02T11:15:31;10.40;99.90
8820;DHT22;4446;50.876;4.736;2024-03-02T11:18:02;10.60;99.90
8820;DHT22;4446;50.876;4.736;2024-03-02T11:20:31;11.10;99.90
8820;DHT22;4446;50.876;4.736;2024-03-02T11:23:04;11.20;99.90
8820;DHT22;4446;50.876;4.736;2024-03-02T11:25:33;11.40;99.90
8820;DHT22;4446;50.876;4.736;2024-03-02T11:28:02;11.40;99.90
8820;DHT22;4446;50.876;4.736;2024-03-02T11:30:50;11.50;99.90
8820;DHT22;4446;50.876;4.736;2024-03-02T11:33:23;11.60;99.90
8820;DHT22;4446;50.876;4.736;2024-03-02T11:35:53;11.60;99.90
8820;DHT22;4446;50.876;4.736;2024-03-02T11:38:19;11.60;99.90
8820;DHT22;4446;50.876;4.736;2024-03-02T11:40:48;11.60;99.90
8820;DHT22;4446;50.876;4.736;2024-03-02T11:43:15;11.70;99.90
8820;DHT22;4446;50.876;4.736;2024-03-02T11:45:42;11.90;99.90
8820;DHT22;4446;50.876;4.736;2024-03-02T11:48:11;12.00;99.90
8820;DHT22;4446;50.876;4.736;2024-03-02T11:50:41;12.20;99.90
8820;DHT22;4446;50.876;4.736;2024-03-02T11:53:10;12.20;99.90
8820;DHT22;4446;50.876;4.736;2024-03-02T11:55:39;12.20;99.90
8820;DHT22;4446;50.876;4.736;2024-03-02T11:58:08;12.20;99.90
8820;DHT22;4446;50.876;4.736;2024-03-02T12:00:35;12.20;99.90
8820;DHT22;4446;50.876;4.736;2024-03-02T12:03:04;12.30;99.90
8820;DHT22;4446;50.876;4.736;2024-03-02T12:05:32;12.30;99.90
8820;DHT22;4446;50.876;4.736;2024-03-02T12:08:01;12.30;99.90
8820;DHT22;4446;50.876;4.736;2024-03-02T12:10:29;12.50;99.90
8820;DHT22;4446;50.876;4.736;2024-03-02T12:12:56;12.60;99.90
8820;DHT22;4446;50.876;4.736;2024-03-02T12:15:27;12.70;99.90
8820;DHT22;4446;50.876;4.736;2024-03-02T12:17:55;12.70;99.90
8820;DHT22;4446;50.876;4.736;2024-03-02T12:20:22;12.90;99.90
8820;DHT22;4446;50.876;4.736;2024-03-02T12:22:50;12.90;99.90
8820;DHT22;4446;50.876;4.736;2024-03-02T12:25:19;12.90;99.90
8820;DHT22;4446;50.876;4.736;2024-03-02T12:27:48;12.90;99.90
8820;DHT22;4446;50.876;4.736;2024-03-02T12:30:16;12.90;99.90
8820;DHT22;4446;50.876;4.736;2024-03-02T12:32:45;12.80;99.90
8820;DHT22;4446;50.876;4.736;2024-03-02T12:35:12;12.90;99.90
8820;DHT22;4446;50.876;4.736;2024-03-02T12:37:48;12.90;99.90
8820;DHT22;4446;50.876;4.736;2024-03-02T12:40:17;13.00;99.90
8820;DHT22;4446;50.876;4.736;2024-03-02T12:42:44;12.90;99.90
8820;DHT22;4446;50.876;4.736;2024-03-02T12:45:12;13.20;99.90
8820;DHT22;4446;50.876;4.736;2024-03-02T12:47:40;13.30;99.90
8820;DHT22;4446;50.876;4.736;2024-03-02T12:50:09;13.40;99.90
8820;DHT22;4446;50.876;4.736;2024-03-02T12:52:36;13.60;99.90
8820;DHT22;4446;50.876;4.736;2024-03-02T12:55:05;13.80;99.90
8820;DHT22;4446;50.876;4.736;2024-03-02T12:57:33;13.80;99.90
8820;DHT22;4446;50.876;4.736;2024-03-02T13:00:00;13.60;99.90
8820;DHT22;4446;50.876;4.736;2024-03-02T13:02:28;13.50;99.90
8820;DHT22;4446;50.876;4.736;2024-03-02T13:04:57;13.50;99.90
8820;DHT22;4446;50.876;4.736;2024-03-02T13:07:26;13.60;99.90
8820;DHT22;4446;50.876;4.736;2024-03-02T13:09:53;13.90;99.90
8820;DHT22;4446;50.876;4.736;2024-03-02T13:12:21;14.10;99.90
8820;DHT22;4446;50.876;4.736;2024-03-02T13:14:49;14.30;99.90
8820;DHT22;4446;50.876;4.736;2024-03-02T13:17:17;14.40;99.90
8820;DHT22;4446;50.876;4.736;2024-03-02T13:19:52;14.40;99.90
8820;DHT22;4446;50.876;4.736;2024-03-02T13:22:20;14.40;99.90
8820;DHT22;4446;50.876;4.736;2024-03-02T13:24:49;14.30;99.90
8820;DHT22;4446;50.876;4.736;2024-03-02T13:27:16;14.40;99.90
8820;DHT22;4446;50.876;4.736;2024-03-02T13:29:45;14.30;99.90
8820;DHT22;4446;50.876;4.736;2024-03-02T13:32:13;14.20;99.90
8820;DHT22;4446;50.876;4.736;2024-03-02T13:34:40;14.20;99.90
8820;DHT22;4446;50.876;4.736;2024-03-02T13:37:06;14.40;99.90
8820;DHT22;4446;50.876;4.736;2024-03-02T13:39:33;14.30;99.90
8820;DHT22;4446;50.876;4.736;2024-03-02T13:42:07;14.30;99.90
8820;DHT22;4446;50.876;4.736;2024-03-02T13:44:35;14.20;99.90
8820;DHT22;4446;50.876;4.736;2024-03-02T13:47:02;14.20;99.90
8820;DHT22;4446;50.876;4.736;2024-03-02T13:49:29;14.10;99.90
8820;DHT22;4446;50.876;4.736;2024-03-02T13:52:01;14.10;99.90
8820;DHT22;4446;50.876;4.736;2024-03-02T13:54:37;13.90;99.90
8820;DHT22;4446;50.876;4.736;2024-03-02T13:57:04;14.10;99.90
8820;DHT22;4446;50.876;4.736;2024-03-02T13:59:32;14.30;99.90
8820;DHT22;4446;50.876;4.736;2024-03-02T14:01:59;14.30;99.90
8820;DHT22;4446;50.876;4.736;2024-03-02T14:04:26;14.20;99.90
8820;DHT22;4446;50.876;4.736;2024-03-02T14:06:53;13.90;99.90
8820;DHT22;4446;50.876;4.736;2024-03-02T14:09:22;13.90;99.90
8820;DHT22;4446;50.876;4.736;2024-03-02T14:11:50;13.70;99.90
8820;DHT22;4446;50.876;4.736;2024-03-02T14:14:17;13.70;99.90
8820;DHT22;4446;50.876;4.736;2024-03-02T14:16:46;13.70;99.90
8820;DHT22;4446;50.876;4.736;2024-03-02T14:19:13;13.90;99.90
8820;DHT22;4446;50.876;4.736;2024-03-02T14:21:40;13.90;99.90
8820;DHT22;4446;50.876;4.736;2024-03-02T14:24:07;13.80;99.90
8820;DHT22;4446;50.876;4.736;2024-03-02T14:26:34;13.70;99.90
8820;DHT22;4446;50.876;4.736;2024-03-02T14:29:02;13.80;99.90
8820;DHT22;4446;50.876;4.736;2024-03-02T14:31:29;13.90;99.90
8820;DHT22;4446;50.876;4.736;2024-03-02T14:33:58;13.80;99.90
8820;DHT22;4446;50.876;4.736;2024-03-02T14:36:25;13.60;99.90
8820;DHT22;4446;50.876;4.736;2024-03-02T14:38:53;13.60;99.90
8820;DHT22;4446;50.876;4.736;2024-03-02T14:41:21;13.40;99.90
8820;DHT22;4446;50.876;4.736;2024-03-02T14:43:49;13.30;99.90
8820;DHT22;4446;50.876;4.736;2024-03-02T14:46:17;13.40;99.90
8820;DHT22;4446;50.876;4.736;2024-03-02T14:48:45;13.30;99.90
8820;DHT22;4446;50.876;4.736;2024-03-02T14:51:14;13.30;99.90
8820;DHT22;4446;50.876;4.736;2024-03-02T14:53:41;13.30;99.90
8820;DHT22;4446;50.876;4.736;2024-03-02T14:56:08;13.30;99.90
8820;DHT22;4446;50.876;4.736;2024-03-02T14:58:35;13.40;99.90
8820;DHT22;4446;50.876;4.736;2024-03-02T15:01:03;13.30;99.90
8820;DHT22;4446;50.876;4.736;2024-03-02T15:03:31;13.30;99.90
8820;DHT22;4446;50.876;4.736;2024-03-02T15:05:58;13.30;99.90
8820;DHT22;4446;50.876;4.736;2024-03-02T15:08:27;13.20;99.90
8820;DHT22;4446;50.876;4.736;2024-03-02T15:10:54;13.10;99.90
8820;DHT22;4446;50.876;4.736;2024-03-02T15:13:23;13.10;99.90
8820;DHT22;4446;50.876;4.736;2024-03-02T15:15:51;13.10;99.90
8820;DHT22;4446;50.876;4.736;2024-03-02T15:18:18;12.90;99.90
8820;DHT22;4446;50.876;4.736;2024-03-02T15:20:45;12.90;99.90
8820;DHT22;4446;50.876;4.736;2024-03-02T15:23:12;12.80;99.90
8820;DHT22;4446;50.876;4.736;2024-03-02T15:25:40;12.80;99.90
8820;DHT22;4446;50.876;4.736;2024-03-02T15:28:07;12.80;99.90
8820;DHT22;4446;50.876;4.736;2024-03-02T15:30:34;12.80;99.90
8820;DHT22;4446;50.876;4.736;2024-03-02T15:33:02;12.70;99.90
8820;DHT22;4446;50.876;4.736;2024-03-02T15:35:29;12.80;99.90
8820;DHT22;4446;50.876;4.736;2024-03-02T15:37:56;12.80;99.90
8820;DHT22;4446;50.876;4.736;2024-03-02T15:40:23;12.80;99.90
8820;DHT22;4446;50.876;4.736;2024-03-02T15:42:51;12.80;99.90
8820;DHT22;4446;50.876;4.736;2024-03-02T15:45:18;12.80;99.90
8820;DHT22;4446;50.876;4.736;2024-03-02T15:47:45;12.80;99.90
8820;DHT22;4446;50.876;4.736;2024-03-02T15:50:12;12.80;99.90
8820;DHT22;4446;50.876;4.736;2024-03-02T15:52:40;12.70;99.90
8820;DHT22;4446;50.876;4.736;2024-03-02T15:55:08;12.60;99.90
8820;DHT22;4446;50.876;4.736;2024-03-02T15:57:35;12.70;99.90
8820;DHT22;4446;50.876;4.736;2024-03-02T16:00:04;12.60;99.90
8820;DHT22;4446;50.876;4.736;2024-03-02T16:02:32;12.60;99.90
8820;DHT22;4446;50.876;4.736;2024-03-02T16:04:59;12.60;99.90
8820;DHT22;4446;50.876;4.736;2024-03-02T16:07:26;12.40;99.90
8820;DHT22;4446;50.876;4.736;2024-03-02T16:09:53;12.30;99.90
8820;DHT22;4446;50.876;4.736;2024-03-02T16:12:19;12.20;99.90
8820;DHT22;4446;50.876;4.736;2024-03-02T16:14:47;12.10;99.90
8820;DHT22;4446;50.876;4.736;2024-03-02T16:17:16;12.00;99.90
8820;DHT22;4446;50.876;4.736;2024-03-02T16:19:43;11.90;99.90